createdAt,value
2023-03-31T00:04:05.534Z,0.63
2023-03-31T00:09:22.075Z,0.65
2023-03-31T00:14:23.732Z,0.73
2023-03-31T00:19:25.404Z,0.85
2023-03-31T00:24:27.067Z,0.70
2023-03-31T00:29:29.399Z,1.00
2023-03-31T00:34:30.981Z,0.80
2023-03-31T00:39:33.931Z,0.65
2023-03-31T00:44:38.456Z,0.75
2023-03-31T00:49:49.494Z,0.90
2023-03-31T00:54:56.669Z,1.17
2023-03-31T01:00:10.018Z,0.85
2023-03-31T01:05:11.632Z,0.85
2023-03-31T01:10:16.708Z,0.80
2023-03-31T01:15:20.180Z,0.80
2023-03-31T01:21:03.929Z,1.00
2023-03-31T01:26:08.473Z,1.00
2023-03-31T01:31:29.080Z,0.65
2023-03-31T01:36:49.613Z,0.80
2023-03-31T01:42:10.920Z,0.82
2023-03-31T01:47:40.860Z,0.68
2023-03-31T01:52:49.861Z,0.80
2023-03-31T01:57:57.985Z,0.85
2023-03-31T02:03:09.890Z,0.90
2023-03-31T02:08:16.428Z,0.68
2023-03-31T02:13:21.435Z,0.60
2023-03-31T02:18:30.697Z,1.08
2023-03-31T02:23:33.142Z,0.70
2023-03-31T02:28:35.601Z,0.75
2023-03-31T02:33:37.375Z,0.68
2023-03-31T02:38:45.082Z,0.75
2023-03-31T02:43:46.732Z,0.82
2023-03-31T02:48:52.055Z,1.00
2023-03-31T02:54:04.472Z,0.98
2023-03-31T02:59:09.009Z,0.70
2023-03-31T03:04:34.211Z,0.70
2023-03-31T03:10:00.012Z,0.77
2023-03-31T03:15:11.180Z,0.60
2023-03-31T03:20:14.112Z,0.70
2023-03-31T03:25:20.843Z,0.77
2023-03-31T03:30:22.659Z,0.80
2023-03-31T03:35:24.787Z,0.70
2023-03-31T03:40:26.403Z,0.80
2023-03-31T03:45:28.064Z,0.65
2023-03-31T03:50:29.668Z,0.57
2023-03-31T03:55:31.318Z,0.70
2023-03-31T04:00:33.448Z,0.75
2023-03-31T04:05:35.027Z,0.70
2023-03-31T04:10:36.696Z,0.82
2023-03-31T04:15:38.452Z,1.20
2023-03-31T04:20:40.029Z,2.13
2023-03-31T04:25:46.384Z,2.72
2023-03-31T04:30:49.154Z,3.20
2023-03-31T04:35:52.654Z,3.22
2023-03-31T04:40:54.437Z,2.28
2023-03-31T04:45:56.408Z,2.67
2023-03-31T04:50:58.027Z,2.63
2023-03-31T04:55:59.774Z,2.30
2023-03-31T05:01:01.485Z,2.35
2023-03-31T05:06:03.224Z,2.70
2023-03-31T05:11:04.975Z,3.38
2023-03-31T05:16:12.472Z,3.00
2023-03-31T05:21:21.657Z,3.50
2023-03-31T05:26:25.429Z,2.60
2023-03-31T05:31:27.373Z,3.92
2023-03-31T05:36:29.152Z,4.20
2023-03-31T05:41:30.815Z,4.40
2023-03-31T05:46:32.475Z,3.67
2023-03-31T05:51:34.941Z,3.67
2023-03-31T05:56:36.540Z,4.15
2023-03-31T06:01:38.265Z,4.43
2023-03-31T06:06:43.006Z,3.50
2023-03-31T06:11:44.766Z,2.97
2023-03-31T06:16:48.258Z,3.60
2023-03-31T06:21:49.843Z,3.53
2023-03-31T06:26:53.499Z,4.00
2023-03-31T06:31:55.548Z,4.30
2023-03-31T06:36:57.930Z,3.75
2023-03-31T06:41:59.489Z,3.20
2023-03-31T06:47:01.101Z,3.10
2023-03-31T06:52:04.060Z,3.10
2023-03-31T06:57:05.958Z,3.25
2023-03-31T07:02:07.595Z,3.20
2023-03-31T07:07:09.626Z,3.80
2023-03-31T07:12:11.526Z,3.00
2023-03-31T07:17:13.141Z,2.70
2023-03-31T07:22:15.924Z,3.22
2023-03-31T07:27:17.557Z,3.00
2023-03-31T07:32:19.268Z,2.70
2023-03-31T07:37:21.052Z,3.05
2023-03-31T07:42:22.679Z,2.92
2023-03-31T07:47:24.608Z,2.28
2023-03-31T07:52:26.246Z,2.13
2023-03-31T07:57:27.910Z,1.70
2023-03-31T08:02:29.619Z,1.73
2023-03-31T08:07:35.115Z,1.45
2023-03-31T08:12:36.953Z,0.70
2023-03-31T08:17:39.196Z,0.50
2023-03-31T08:22:41.316Z,0.63
2023-03-31T08:27:42.917Z,0.60
2023-03-31T08:32:44.830Z,0.40
2023-03-31T08:37:47.730Z,0.70
2023-03-31T08:42:51.749Z,0.65
2023-03-31T08:48:04.629Z,0.65
2023-03-31T08:53:17.845Z,0.65
2023-03-31T08:58:29.526Z,0.63
2023-03-31T09:03:47.363Z,1.08
2023-03-31T09:08:49.144Z,0.88
2023-03-31T09:13:53.437Z,0.90
2023-03-31T09:19:00.561Z,1.10
2023-03-31T09:24:11.829Z,1.10
2023-03-31T09:29:40.855Z,0.90
2023-03-31T09:34:44.679Z,0.93
2023-03-31T09:39:46.468Z,1.17
2023-03-31T09:44:52.320Z,0.85
2023-03-31T09:49:54.776Z,0.87
2023-03-31T09:55:00.666Z,0.98
2023-03-31T10:00:17.840Z,1.20
2023-03-31T10:05:27.479Z,1.17
2023-03-31T10:10:33.386Z,1.00
2023-03-31T10:15:39.698Z,0.83
2023-03-31T10:20:51.568Z,1.55
2023-03-31T10:25:54.256Z,1.10
2023-03-31T10:31:01.779Z,1.02
2023-03-31T10:36:13.734Z,1.67
2023-03-31T10:41:28.196Z,1.42
2023-03-31T10:46:49.654Z,1.05
2023-03-31T10:51:59.458Z,1.27
2023-03-31T10:57:04.633Z,1.33
2023-03-31T11:02:27.412Z,1.00
2023-03-31T11:07:50.717Z,1.60
2023-03-31T11:13:20.864Z,1.33
2023-03-31T11:18:57.033Z,1.60
2023-03-31T11:24:23.494Z,1.10
2023-03-31T11:34:53.247Z,1.10
2023-03-31T11:39:57.515Z,1.15
2023-03-31T11:45:06.470Z,1.63
2023-03-31T11:50:14.827Z,1.20
2023-03-31T11:55:21.749Z,1.60
2023-03-31T12:00:28.659Z,1.10
2023-03-31T12:05:33.975Z,1.63
2023-03-31T12:10:37.930Z,1.30
2023-03-31T12:15:42.813Z,1.55
2023-03-31T12:20:56.577Z,1.25
2023-03-31T12:26:20.402Z,1.88
2023-03-31T12:31:26.322Z,1.33
2023-03-31T12:36:52.955Z,1.63
2023-03-31T12:42:13.754Z,1.20
2023-03-31T12:47:34.977Z,1.60
2023-03-31T12:52:44.605Z,1.38
2023-03-31T12:57:46.254Z,1.42
2023-03-31T13:02:48.859Z,1.85
2023-03-31T13:07:50.634Z,1.27
2023-03-31T13:13:16.369Z,1.02
2023-03-31T13:18:21.135Z,1.95
2023-03-31T13:23:28.761Z,1.35
2023-03-31T13:28:43.912Z,1.58
2023-03-31T13:33:52.051Z,1.40
2023-03-31T13:39:14.736Z,1.40
2023-03-31T13:44:51.145Z,1.40
2023-03-31T13:50:16.992Z,1.20
2023-03-31T13:55:39.913Z,1.20
2023-03-31T14:01:17.167Z,2.20
2023-03-31T14:06:33.796Z,1.30
2023-03-31T14:11:35.424Z,1.20
2023-03-31T14:16:40.051Z,1.38
2023-03-31T14:21:53.332Z,1.48
2023-03-31T14:27:21.216Z,1.40
2023-03-31T14:33:04.112Z,1.20
2023-03-31T14:38:11.921Z,1.10
2023-03-31T14:43:22.343Z,1.23
2023-03-31T14:48:24.202Z,1.10
2023-03-31T14:53:27.056Z,1.15
2023-03-31T14:58:35.082Z,1.38
2023-03-31T15:03:41.741Z,1.10
2023-03-31T15:14:01.072Z,1.08
2023-03-31T15:19:15.183Z,0.93
2023-03-31T15:24:17.461Z,0.77
2023-03-31T15:29:29.748Z,0.85
2023-03-31T15:34:33.838Z,0.85
2023-03-31T15:39:37.621Z,0.90
2023-03-31T15:44:45.043Z,0.80
2023-03-31T15:50:16.271Z,1.08
2023-03-31T15:55:25.411Z,0.93
2023-03-31T16:00:52.449Z,0.88
2023-03-31T16:05:58.316Z,0.63
2023-03-31T16:11:10.081Z,1.10
2023-03-31T16:16:15.583Z,1.00
2023-03-31T16:21:30.951Z,1.17
2023-03-31T16:26:33.668Z,0.80
2023-03-31T16:31:41.462Z,0.90
2023-03-31T16:36:43.388Z,0.82
2023-03-31T16:41:45.131Z,1.30
2023-03-31T16:46:47.319Z,1.02
2023-03-31T16:51:49.009Z,1.13
2023-03-31T16:56:51.382Z,0.63
2023-03-31T17:01:53.559Z,1.10
2023-03-31T17:06:55.416Z,1.30
2023-03-31T17:11:57.317Z,1.20
2023-03-31T17:16:59.687Z,1.10
2023-03-31T17:22:03.634Z,1.88
2023-03-31T17:27:06.014Z,1.13
2023-03-31T17:32:07.999Z,1.00
2023-03-31T17:37:10.595Z,1.00
2023-03-31T17:42:14.224Z,1.10
2023-03-31T17:47:17.509Z,1.13
2023-03-31T17:52:19.200Z,0.60
2023-03-31T17:57:21.942Z,0.60
2023-03-31T18:02:25.121Z,0.88
2023-03-31T18:07:27.754Z,0.80
2023-03-31T18:12:29.803Z,1.13
2023-03-31T18:17:31.786Z,0.70
2023-03-31T18:22:34.260Z,1.00
2023-03-31T18:27:37.779Z,0.90
2023-03-31T18:32:40.198Z,0.93
2023-03-31T18:37:42.481Z,0.80
2023-03-31T18:42:44.542Z,0.68
2023-03-31T18:47:47.692Z,0.30
2023-03-31T18:52:54.980Z,0.50
2023-03-31T18:57:58.777Z,0.43
2023-03-31T19:03:02.107Z,0.50
2023-03-31T19:08:04.728Z,0.35
2023-03-31T19:13:08.295Z,0.40
2023-03-31T19:18:15.451Z,0.25
2023-03-31T19:23:18.036Z,0.22
2023-03-31T19:28:21.516Z,0.20
2023-03-31T19:33:25.475Z,0.32
2023-03-31T19:38:32.428Z,0.40
2023-03-31T19:43:36.660Z,0.57
2023-03-31T19:48:38.791Z,0.40
2023-03-31T19:53:41.708Z,0.30
2023-03-31T19:58:45.360Z,0.30
2023-03-31T20:03:54.397Z,0.52
2023-03-31T20:08:59.876Z,0.40
2023-03-31T20:14:03.256Z,0.43
2023-03-31T20:19:06.464Z,0.50
2023-03-31T20:24:11.468Z,0.47
2023-03-31T20:29:14.270Z,0.65
2023-03-31T20:34:18.552Z,0.40
2023-03-31T20:39:21.332Z,0.40
2023-03-31T20:44:23.718Z,0.50
2023-03-31T20:49:26.007Z,0.60
2023-03-31T20:54:28.159Z,0.50
2023-03-31T20:59:30.116Z,0.70
2023-03-31T21:04:31.867Z,0.60
2023-03-31T21:09:34.210Z,0.60
2023-03-31T21:14:36.712Z,0.50
2023-03-31T21:19:38.285Z,0.50
2023-03-31T21:24:39.895Z,0.50
2023-03-31T21:29:41.537Z,0.38
2023-03-31T21:34:43.101Z,0.40
2023-03-31T21:39:44.723Z,0.50
2023-03-31T21:44:46.325Z,0.50
2023-03-31T21:49:47.929Z,0.70
2023-03-31T21:54:49.493Z,0.70
2023-03-31T21:59:51.100Z,0.65
2023-03-31T22:04:52.752Z,1.00
2023-03-31T22:09:54.348Z,0.55
2023-03-31T22:14:56.995Z,0.50
2023-03-31T22:19:58.872Z,0.60
2023-03-31T22:25:00.622Z,0.50
2023-03-31T22:30:02.844Z,0.30
2023-03-31T22:35:04.828Z,0.40
2023-03-31T22:40:07.214Z,0.30
2023-03-31T22:45:09.273Z,0.40
2023-03-31T22:50:11.420Z,0.32
2023-03-31T22:55:13.119Z,0.30
2023-03-31T23:00:15.359Z,0.55
2023-03-31T23:05:17.015Z,0.50
2023-03-31T23:10:18.776Z,0.85
2023-03-31T23:15:20.854Z,0.50
2023-03-31T23:20:22.890Z,0.57
2023-03-31T23:25:24.475Z,0.70
2023-03-31T23:30:26.317Z,0.80
2023-03-31T23:35:28.073Z,0.70
2023-03-31T23:40:29.642Z,0.70
2023-03-31T23:45:31.774Z,0.73
2023-03-31T23:50:34.193Z,0.50
2023-03-31T23:55:36.601Z,0.80
